Unbenanntes Dokument
Flugplatz Bielefeld Platzwetter

 

Aktuelles Platzwetter am Flugplatz Bielefeld EDLI

18.02.18 ,09:10 Uhr

METAR EDLI 180910Z 16005KT 9999 02/M00 Q1028

 

Windwerte

 

Wolkenuntergrenzen

Wind aktuell:130 ° mit 4 kt
Wind 10 min Extrem:
80 ° bis 210 ° mit 2 kt bis 8 kt
Seitenwindkomponente: 3.3 kt
Wolkengrenze 1:
Wolkengrenze 2:
Wolkengrenze 3:

Webcam

Temperatur

       

Sichtweite:

10.000 Meter

2.0 °C
Taupunkt: 0.6 °C
Luftfeuchtigkeit: 90 %

Luftdruck:

QNH: 1028 hPa (30.36 in Hg)
QFE: 1011 hPa (29.85 in Hg)

Diese Daten werden automatisch ermittelt bzw. übertragen und sind nicht geprüft. Für die Richtigkeit wird daher keine Gewähr übernommen. Sie ersetzen im übrigen nicht die Flugwetterberatung. Alle Zeitangaben beziehen sich auf UTC. Die Seite wird einmal die Minute aktualisiert! Sollten Sie ein ältere Seite haben, so drücken Sie bitte auf den Reload Button Ihres Browsers!